Time;durP1;ratioP1;P1;durP2;ratioP2;P2;SDS_P1;SDS_P2;PMS_P1;PMS_P2;Temp;Humidity;BMP_temperature;BMP_pressure;BME280_temperature;BME280_humidity;BME280_pressure;Samples;Min_cycle;Max_cycle;Signal;HPM_P1;HPM_P2
2023/10/25 00:00:52;;;;;;;;;;;19.90;59.30;;;;;;1508458;76;1195;-60
2023/10/25 00:02:54;;;;;;;;;;;19.90;59.20;;;;;;1507064;78;1935;-61
2023/10/25 00:04:56;;;;;;;;;;;19.90;59.20;;;;;;1512037;78;761;-62
2023/10/25 00:06:58;;;;;;;;;;;19.90;59.30;;;;;;1513563;76;1341;-62
2023/10/25 00:09:00;;;;;;;;;;;19.90;59.20;;;;;;1512696;77;786;-61
2023/10/25 00:11:05;;;;;;;;;;;19.90;59.20;;;;;;1503115;78;1282;-62
2023/10/25 00:13:07;;;;;;;;;;;19.90;59.20;;;;;;1521183;78;729;-61
2023/10/25 00:15:09;;;;;;;;;;;19.90;59.20;;;;;;1510846;76;729;-61
2023/10/25 00:17:11;;;;;;;;;;;19.90;59.20;;;;;;1508864;78;742;-60
2023/10/25 00:19:13;;;;;;;;;;;19.90;59.20;;;;;;1509106;78;885;-61
2023/10/25 00:21:15;;;;;;;;;;;19.90;59.20;;;;;;1513350;78;1478;-62
2023/10/25 00:23:16;;;;;;;;;;;19.90;59.20;;;;;;1502414;76;1921;-61
2023/10/25 00:25:18;;;;;;;;;;;19.90;59.20;;;;;;1508396;77;735;-61
2023/10/25 00:27:20;;;;;;;;;;;19.90;59.20;;;;;;1519641;76;746;-61
2023/10/25 00:29:22;;;;;;;;;;;19.90;59.10;;;;;;1512779;77;670;-61
2023/10/25 00:31:24;;;;;;;;;;;19.90;59.20;;;;;;1501708;77;1156;-60
2023/10/25 00:33:26;;;;;;;;;;;19.90;59.10;;;;;;1509206;78;798;-62
2023/10/25 00:35:28;;;;;;;;;;;19.90;59.10;;;;;;1507519;76;1539;-61
2023/10/25 00:37:29;;;;;;;;;;;19.90;59.10;;;;;;1500478;78;791;-61
2023/10/25 00:39:31;;;;;;;;;;;19.90;59.10;;;;;;1508690;78;901;-62
2023/10/25 00:41:33;;;;;;;;;;;19.90;59.10;;;;;;1514675;78;1170;-62
2023/10/25 00:43:35;;;;;;;;;;;19.90;59.10;;;;;;1514128;76;1910;-61
2023/10/25 00:45:37;;;;;;;;;;;19.90;59.10;;;;;;1514150;78;820;-61
2023/10/25 00:47:40;;;;;;;;;;;19.90;59.10;;;;;;1505445;78;850;-61
2023/10/25 00:49:42;;;;;;;;;;;19.90;59.10;;;;;;1514714;78;1454;-62
2023/10/25 00:51:44;;;;;;;;;;;19.80;59.00;;;;;;1510573;76;1160;-62
2023/10/25 00:53:53;;;;;;;;;;;19.90;59.10;;;;;;1505252;78;697;-62
2023/10/25 00:55:56;;;;;;;;;;;19.90;59.10;;;;;;1509795;77;872;-61
2023/10/25 00:57:58;;;;;;;;;;;19.90;59.10;;;;;;1509001;78;734;-60
2023/10/25 01:00:00;;;;;;;;;;;19.90;59.10;;;;;;1515534;76;723;-61
2023/10/25 01:02:02;;;;;;;;;;;19.90;59.10;;;;;;1509324;78;1139;-61
2023/10/25 01:04:04;;;;;;;;;;;19.90;59.10;;;;;;1517786;78;1934;-61
2023/10/25 01:06:06;;;;;;;;;;;19.90;59.00;;;;;;1513574;78;729;-62
2023/10/25 01:08:08;;;;;;;;;;;19.90;59.10;;;;;;1507389;76;720;-62
2023/10/25 01:10:10;;;;;;;;;;;19.90;59.00;;;;;;1502442;77;737;-62
2023/10/25 01:12:12;;;;;;;;;;;19.90;59.10;;;;;;1503041;78;1165;-62
2023/10/25 01:14:14;;;;;;;;;;;19.90;59.00;;;;;;1511278;76;776;-61
2023/10/25 01:16:15;;;;;;;;;;;19.90;59.00;;;;;;1514164;78;854;-61
2023/10/25 01:18:17;;;;;;;;;;;19.90;59.00;;;;;;1518351;77;1404;-61
2023/10/25 01:20:19;;;;;;;;;;;19.90;59.00;;;;;;1520871;77;727;-62
2023/10/25 01:22:24;;;;;;;;;;;19.90;59.00;;;;;;1503733;78;1129;-61
2023/10/25 01:24:26;;;;;;;;;;;19.80;58.90;;;;;;1508652;76;1945;-60
2023/10/25 01:26:28;;;;;;;;;;;19.90;59.00;;;;;;1515158;76;827;-61
2023/10/25 01:28:30;;;;;;;;;;;19.90;59.00;;;;;;1513613;78;803;-61
2023/10/25 01:30:32;;;;;;;;;;;19.90;59.00;;;;;;1515939;78;751;-62
2023/10/25 01:32:34;;;;;;;;;;;19.90;59.00;;;;;;1513487;78;1642;-62
2023/10/25 01:34:36;;;;;;;;;;;19.90;59.00;;;;;;1506216;76;805;-61
2023/10/25 01:36:38;;;;;;;;;;;19.90;59.00;;;;;;1507391;78;740;-62
2023/10/25 01:38:40;;;;;;;;;;;19.90;59.00;;;;;;1513443;78;762;-59
2023/10/25 01:40:42;;;;;;;;;;;19.80;58.90;;;;;;1513881;78;754;-62
2023/10/25 01:42:44;;;;;;;;;;;19.90;59.00;;;;;;1507006;77;1093;-62
2023/10/25 01:44:46;;;;;;;;;;;19.90;59.00;;;;;;1511452;76;1938;-62
2023/10/25 01:46:48;;;;;;;;;;;19.90;59.00;;;;;;1504603;78;1693;-61
2023/10/25 01:48:50;;;;;;;;;;;19.90;58.90;;;;;;1512100;78;742;-61
2023/10/25 01:50:54;;;;;;;;;;;19.90;58.90;;;;;;1511308;78;1101;-62
2023/10/25 01:52:56;;;;;;;;;;;19.80;58.90;;;;;;1512363;76;783;-61
2023/10/25 01:54:58;;;;;;;;;;;19.90;58.90;;;;;;1507179;78;725;-60
2023/10/25 01:57:00;;;;;;;;;;;19.80;58.90;;;;;;1512225;78;764;-61
2023/10/25 01:59:02;;;;;;;;;;;19.90;58.90;;;;;;1505536;78;1575;-61
2023/10/25 02:01:05;;;;;;;;;;;19.80;58.90;;;;;;1508728;76;1157;-62
2023/10/25 02:03:07;;;;;;;;;;;19.80;58.80;;;;;;1513197;78;1912;-59
2023/10/25 02:05:09;;;;;;;;;;;19.80;58.80;;;;;;1519891;78;714;-60
2023/10/25 02:07:11;;;;;;;;;;;19.90;58.90;;;;;;1512522;76;700;-62
2023/10/25 02:09:12;;;;;;;;;;;19.80;58.80;;;;;;1515481;78;845;-62
2023/10/25 02:11:15;;;;;;;;;;;19.90;58.80;;;;;;1505328;78;1101;-62
2023/10/25 02:13:17;;;;;;;;;;;19.90;58.90;;;;;;1513497;76;1566;-59
2023/10/25 02:15:19;;;;;;;;;;;19.90;58.90;;;;;;1517784;78;626;-62
2023/10/25 02:17:22;;;;;;;;;;;19.90;58.80;;;;;;1506556;78;723;-61
2023/10/25 02:19:23;;;;;;;;;;;19.80;58.80;;;;;;1506493;78;785;-60
2023/10/25 02:21:25;;;;;;;;;;;19.90;58.90;;;;;;1505692;76;1144;-61
2023/10/25 02:23:27;;;;;;;;;;;19.90;58.80;;;;;;1513338;78;1926;-60
2023/10/25 02:25:48;;;;;;;;;;;19.90;58.90;;;;;;1514653;78;754;-60
2023/10/25 02:27:50;;;;;;;;;;;19.90;58.90;;;;;;1511887;78;1712;-61
2023/10/25 02:29:52;;;;;;;;;;;19.90;58.90;;;;;;1534107;76;705;-59
2023/10/25 02:31:54;;;;;;;;;;;19.90;58.90;;;;;;1533486;76;1231;-60
2023/10/25 02:33:56;;;;;;;;;;;19.90;58.90;;;;;;1538824;76;793;-60
2023/10/25 02:35:58;;;;;;;;;;;19.90;58.90;;;;;;1538384;76;809;-60
2023/10/25 02:38:00;;;;;;;;;;;19.90;58.90;;;;;;1540040;76;729;-61
2023/10/25 02:40:02;;;;;;;;;;;19.90;58.90;;;;;;1536171;76;754;-61
2023/10/25 02:42:04;;;;;;;;;;;19.90;58.90;;;;;;1537642;76;1365;-59
2023/10/25 02:44:06;;;;;;;;;;;19.90;58.90;;;;;;1537193;76;1908;-60
2023/10/25 02:46:09;;;;;;;;;;;19.80;58.80;;;;;;1568729;75;793;-61
2023/10/25 02:48:13;;;;;;;;;;;19.90;58.90;;;;;;1526092;76;936;-61
2023/10/25 02:50:15;;;;;;;;;;;19.80;58.90;;;;;;1531030;76;779;-62
2023/10/25 02:52:17;;;;;;;;;;;19.80;58.90;;;;;;1528839;76;1082;-61
2023/10/25 02:54:19;;;;;;;;;;;19.80;58.90;;;;;;1529441;76;680;-61
2023/10/25 02:56:21;;;;;;;;;;;19.80;58.90;;;;;;1540774;76;1513;-61
2023/10/25 02:58:23;;;;;;;;;;;19.90;58.90;;;;;;1542752;76;772;-61
2023/10/25 03:00:25;;;;;;;;;;;19.90;59.00;;;;;;1537635;76;749;-61
2023/10/25 03:02:27;;;;;;;;;;;19.90;59.00;;;;;;1541371;76;1074;-60
2023/10/25 03:04:29;;;;;;;;;;;19.90;59.00;;;;;;1540016;76;1939;-60
2023/10/25 03:06:31;;;;;;;;;;;19.80;58.90;;;;;;1539018;76;779;-61
2023/10/25 03:08:33;;;;;;;;;;;19.90;58.90;;;;;;1540744;76;717;-60
2023/10/25 03:10:35;;;;;;;;;;;19.80;58.90;;;;;;1540479;76;1516;-60
2023/10/25 03:12:37;;;;;;;;;;;19.80;58.80;;;;;;1541453;76;1097;-60
2023/10/25 03:14:39;;;;;;;;;;;19.80;58.90;;;;;;1539950;76;800;-61
2023/10/25 03:16:41;;;;;;;;;;;19.90;59.00;;;;;;1538611;76;789;-62
2023/10/25 03:18:43;;;;;;;;;;;19.80;58.90;;;;;;1536173;76;939;-61
2023/10/25 03:20:45;;;;;;;;;;;19.90;58.90;;;;;;1542648;76;771;-62
2023/10/25 03:22:47;;;;;;;;;;;19.80;58.80;;;;;;1540822;76;1089;-61
2023/10/25 03:24:48;;;;;;;;;;;19.90;58.90;;;;;;1540775;76;1927;-61
2023/10/25 03:26:50;;;;;;;;;;;19.90;58.90;;;;;;1541126;76;768;-62
2023/10/25 03:28:52;;;;;;;;;;;19.90;58.90;;;;;;1542141;76;726;-62
2023/10/25 03:30:54;;;;;;;;;;;19.90;58.90;;;;;;1541010;76;1161;-61
2023/10/25 03:32:56;;;;;;;;;;;19.90;58.90;;;;;;1536658;76;739;-61
2023/10/25 03:34:58;;;;;;;;;;;19.90;58.90;;;;;;1538480;76;798;-60
2023/10/25 03:37:00;;;;;;;;;;;19.90;58.90;;;;;;1538900;76;726;-60
2023/10/25 03:39:02;;;;;;;;;;;19.80;58.90;;;;;;1541200;76;1594;-62
2023/10/25 03:41:07;;;;;;;;;;;19.90;58.90;;;;;;1538319;76;1149;-61
2023/10/25 03:43:09;;;;;;;;;;;19.90;58.90;;;;;;1537401;76;736;-59
2023/10/25 03:45:11;;;;;;;;;;;19.90;58.90;;;;;;1542102;76;1947;-61
2023/10/25 03:47:12;;;;;;;;;;;19.90;58.90;;;;;;1541025;76;723;-61
2023/10/25 03:49:14;;;;;;;;;;;19.90;58.90;;;;;;1541268;76;740;-60
2023/10/25 03:51:16;;;;;;;;;;;19.80;58.80;;;;;;1539854;76;1149;-60
2023/10/25 03:53:18;;;;;;;;;;;19.80;58.70;;;;;;1537755;76;1550;-62
2023/10/25 03:55:20;;;;;;;;;;;19.90;58.90;;;;;;1541039;76;757;-62
2023/10/25 03:57:22;;;;;;;;;;;19.80;58.80;;;;;;1540897;76;847;-62
2023/10/25 03:59:24;;;;;;;;;;;19.90;58.80;;;;;;1541312;76;724;-60
2023/10/25 04:01:26;;;;;;;;;;;19.80;58.70;;;;;;1541136;76;1144;-60
2023/10/25 04:03:28;;;;;;;;;;;19.80;58.70;;;;;;1539549;76;708;-61
2023/10/25 04:05:30;;;;;;;;;;;19.80;58.70;;;;;;1543424;76;1921;-61
2023/10/25 04:07:32;;;;;;;;;;;19.80;58.70;;;;;;1541929;76;795;-61
2023/10/25 04:09:34;;;;;;;;;;;19.80;58.70;;;;;;1540087;76;797;-61
2023/10/25 04:11:36;;;;;;;;;;;19.90;58.80;;;;;;1542084;76;1136;-62
2023/10/25 04:13:37;;;;;;;;;;;19.90;58.70;;;;;;1538527;76;754;-60
2023/10/25 04:15:39;;;;;;;;;;;19.90;58.80;;;;;;1541313;76;761;-62
2023/10/25 04:17:41;;;;;;;;;;;19.90;58.80;;;;;;1541853;76;679;-62
2023/10/25 04:19:43;;;;;;;;;;;19.80;58.70;;;;;;1540770;76;741;-62
2023/10/25 04:21:45;;;;;;;;;;;19.90;58.80;;;;;;1543237;76;1165;-61
2023/10/25 04:23:47;;;;;;;;;;;19.80;58.70;;;;;;1538381;76;748;-61
2023/10/25 04:25:49;;;;;;;;;;;19.90;58.80;;;;;;1539524;76;1944;-60
2023/10/25 04:27:50;;;;;;;;;;;19.90;58.80;;;;;;1540267;76;760;-61
2023/10/25 04:29:52;;;;;;;;;;;19.90;58.80;;;;;;1538764;76;736;-61
2023/10/25 04:31:55;;;;;;;;;;;19.90;58.80;;;;;;1539985;76;1150;-61
2023/10/25 04:33:56;;;;;;;;;;;19.90;58.70;;;;;;1542946;76;811;-62
2023/10/25 04:35:58;;;;;;;;;;;19.90;58.70;;;;;;1541341;76;804;-61
2023/10/25 04:38:01;;;;;;;;;;;19.80;58.60;;;;;;1540553;76;771;-62
2023/10/25 04:40:03;;;;;;;;;;;19.90;58.70;;;;;;1541640;76;695;-61
2023/10/25 04:42:05;;;;;;;;;;;19.80;58.70;;;;;;1540995;76;1087;-62
2023/10/25 04:44:08;;;;;;;;;;;19.90;58.70;;;;;;1540148;76;1948;-59
2023/10/25 04:46:11;;;;;;;;;;;19.90;58.70;;;;;;1540848;76;725;-61
2023/10/25 04:48:13;;;;;;;;;;;19.90;58.70;;;;;;1537924;76;2103;-61
2023/10/25 04:50:15;;;;;;;;;;;19.90;58.70;;;;;;1539978;76;730;-62
2023/10/25 04:52:19;;;;;;;;;;;19.90;58.70;;;;;;1540491;76;1136;-62
2023/10/25 04:54:20;;;;;;;;;;;19.90;58.70;;;;;;1542912;76;687;-62
2023/10/25 04:56:23;;;;;;;;;;;19.80;58.70;;;;;;1538640;76;832;-61
2023/10/25 04:58:27;;;;;;;;;;;19.90;58.70;;;;;;1540983;76;792;-61
2023/10/25 05:00:28;;;;;;;;;;;19.90;58.70;;;;;;1540635;76;1640;-60
2023/10/25 05:02:30;;;;;;;;;;;19.90;58.70;;;;;;1540139;76;1059;-59
2023/10/25 05:04:32;;;;;;;;;;;19.90;58.70;;;;;;1537946;76;1936;-61
2023/10/25 05:06:34;;;;;;;;;;;19.90;58.70;;;;;;1540223;76;1573;-61
2023/10/25 05:08:36;;;;;;;;;;;19.80;58.50;;;;;;1538717;76;860;-60
2023/10/25 05:10:38;;;;;;;;;;;19.90;58.60;;;;;;1539647;76;770;-60
2023/10/25 05:12:42;;;;;;;;;;;19.90;58.70;;;;;;1540144;76;1121;-60
2023/10/25 05:14:44;;;;;;;;;;;19.90;58.60;;;;;;1537441;76;1063;-62
2023/10/25 05:16:46;;;;;;;;;;;19.90;58.70;;;;;;1540095;76;714;-61
2023/10/25 05:18:49;;;;;;;;;;;19.80;58.60;;;;;;1541713;76;965;-61
2023/10/25 05:20:52;;;;;;;;;;;19.90;58.60;;;;;;1539779;76;1184;-61
2023/10/25 05:22:54;;;;;;;;;;;19.90;58.60;;;;;;1538112;76;659;-61
2023/10/25 05:24:56;;;;;;;;;;;19.90;58.70;;;;;;1537267;76;1937;-61
2023/10/25 05:26:58;;;;;;;;;;;19.90;58.60;;;;;;1540029;76;783;-61
2023/10/25 05:29:00;;;;;;;;;;;19.80;58.60;;;;;;1540331;76;785;-61
2023/10/25 05:31:03;;;;;;;;;;;19.80;58.60;;;;;;1537231;76;1177;-61
2023/10/25 05:33:05;;;;;;;;;;;19.90;58.60;;;;;;1540644;76;816;-61
2023/10/25 05:35:07;;;;;;;;;;;19.80;58.60;;;;;;1539726;76;845;-62
2023/10/25 05:37:09;;;;;;;;;;;19.90;58.60;;;;;;1541380;76;697;-62
2023/10/25 05:39:11;;;;;;;;;;;19.90;58.60;;;;;;1540677;76;704;-61
2023/10/25 05:41:14;;;;;;;;;;;19.80;58.50;;;;;;1537963;76;1195;-61
2023/10/25 05:43:16;;;;;;;;;;;19.90;58.60;;;;;;1539971;76;724;-61
2023/10/25 05:45:18;;;;;;;;;;;19.90;58.60;;;;;;1539618;76;1922;-61
2023/10/25 05:47:21;;;;;;;;;;;19.90;58.60;;;;;;1537647;76;707;-61
2023/10/25 05:49:23;;;;;;;;;;;19.90;58.60;;;;;;1532943;76;701;-59
2023/10/25 05:51:25;;;;;;;;;;;19.80;58.50;;;;;;1541287;76;1136;-60
2023/10/25 05:53:27;;;;;;;;;;;19.80;58.50;;;;;;1539466;76;745;-60
2023/10/25 05:55:29;;;;;;;;;;;19.80;58.60;;;;;;1539551;76;909;-60
2023/10/25 05:57:31;;;;;;;;;;;19.80;58.60;;;;;;1540744;76;878;-61
2023/10/25 05:59:34;;;;;;;;;;;19.80;58.50;;;;;;1538106;76;806;-58
2023/10/25 06:01:37;;;;;;;;;;;19.90;58.60;;;;;;1539277;76;1132;-59
2023/10/25 06:03:40;;;;;;;;;;;19.80;58.50;;;;;;1540725;76;751;-59
2023/10/25 06:05:42;;;;;;;;;;;19.90;58.60;;;;;;1534303;76;1913;-60
2023/10/25 06:07:43;;;;;;;;;;;19.80;58.50;;;;;;1539780;76;688;-60
2023/10/25 06:09:46;;;;;;;;;;;19.90;58.60;;;;;;1541089;76;757;-61
2023/10/25 06:11:47;;;;;;;;;;;19.80;58.50;;;;;;1540545;76;1097;-60
2023/10/25 06:13:50;;;;;;;;;;;19.80;58.50;;;;;;1539764;76;703;-61
2023/10/25 06:15:51;;;;;;;;;;;19.80;58.50;;;;;;1540693;76;751;-61
2023/10/25 06:17:53;;;;;;;;;;;19.80;58.50;;;;;;1540675;76;767;-61
2023/10/25 06:19:55;;;;;;;;;;;19.80;58.50;;;;;;1539824;76;746;-60
2023/10/25 06:21:57;;;;;;;;;;;19.80;58.50;;;;;;1538007;76;1193;-59
2023/10/25 06:23:59;;;;;;;;;;;19.80;58.50;;;;;;1539563;76;820;-59
2023/10/25 06:26:03;;;;;;;;;;;19.80;58.50;;;;;;1540231;76;1923;-61
2023/10/25 06:28:05;;;;;;;;;;;19.80;58.40;;;;;;1540081;76;777;-61
2023/10/25 06:30:07;;;;;;;;;;;19.90;58.50;;;;;;1539864;76;867;-61
2023/10/25 06:32:09;;;;;;;;;;;19.80;58.50;;;;;;1537546;76;1156;-61
2023/10/25 06:34:11;;;;;;;;;;;19.80;58.50;;;;;;1540208;76;719;-60
2023/10/25 06:36:13;;;;;;;;;;;19.80;58.40;;;;;;1540560;76;686;-59
2023/10/25 06:38:15;;;;;;;;;;;19.80;58.50;;;;;;1540568;76;910;-60
2023/10/25 06:40:17;;;;;;;;;;;19.90;58.50;;;;;;1540504;76;675;-60
2023/10/25 06:42:20;;;;;;;;;;;19.90;58.50;;;;;;1541049;76;1185;-60
2023/10/25 06:44:22;;;;;;;;;;;19.90;58.40;;;;;;1539166;76;775;-60
2023/10/25 06:46:24;;;;;;;;;;;19.90;58.40;;;;;;1540823;76;1926;-60
2023/10/25 06:48:25;;;;;;;;;;;19.90;58.40;;;;;;1541847;76;731;-59
2023/10/25 06:50:28;;;;;;;;;;;19.90;58.30;;;;;;1542863;76;756;-59
2023/10/25 06:52:30;;;;;;;;;;;19.90;58.40;;;;;;1539232;76;1142;-60
2023/10/25 06:54:32;;;;;;;;;;;19.90;58.40;;;;;;1539251;76;919;-60
2023/10/25 06:56:34;;;;;;;;;;;19.90;58.30;;;;;;1540635;76;755;-60
2023/10/25 06:58:37;;;;;;;;;;;19.90;58.30;;;;;;1540114;76;590;-60
2023/10/25 07:00:39;;;;;;;;;;;19.90;58.30;;;;;;1539787;76;741;-60
2023/10/25 07:02:45;;;;;;;;;;;19.80;58.20;;;;;;1539009;76;1356;-58
2023/10/25 07:04:47;;;;;;;;;;;19.80;58.20;;;;;;1540416;76;692;-60
2023/10/25 07:06:49;;;;;;;;;;;19.90;58.30;;;;;;1539576;76;805;-61
2023/10/25 07:08:52;;;;;;;;;;;19.90;58.40;;;;;;1540758;76;747;-61
2023/10/25 07:10:54;;;;;;;;;;;19.80;58.30;;;;;;1540679;76;1118;-60
2023/10/25 07:12:56;;;;;;;;;;;19.80;58.20;;;;;;1540337;76;689;-60
2023/10/25 07:14:57;;;;;;;;;;;19.90;58.30;;;;;;1539156;76;703;-60
2023/10/25 07:16:59;;;;;;;;;;;19.80;58.20;;;;;;1538623;76;587;-60
2023/10/25 07:19:01;;;;;;;;;;;19.80;58.30;;;;;;1540263;76;700;-58
2023/10/25 07:21:03;;;;;;;;;;;19.90;58.30;;;;;;1540451;76;1176;-61
2023/10/25 07:23:06;;;;;;;;;;;19.90;58.30;;;;;;1536479;76;719;-61
2023/10/25 07:25:09;;;;;;;;;;;19.90;58.30;;;;;;1543293;76;1910;-60
2023/10/25 07:27:10;;;;;;;;;;;19.80;58.20;;;;;;1540632;76;909;-61
2023/10/25 07:29:12;;;;;;;;;;;19.90;58.30;;;;;;1539785;76;812;-61
2023/10/25 07:31:15;;;;;;;;;;;19.90;58.30;;;;;;1540090;76;1192;-60
2023/10/25 07:33:17;;;;;;;;;;;19.80;58.20;;;;;;1538580;76;904;-63
2023/10/25 07:35:19;;;;;;;;;;;19.80;58.20;;;;;;1540200;76;674;-63
2023/10/25 07:37:21;;;;;;;;;;;19.90;58.30;;;;;;1540413;76;668;-63
2023/10/25 07:39:23;;;;;;;;;;;19.90;58.30;;;;;;1536955;76;639;-65
2023/10/25 07:41:25;;;;;;;;;;;19.80;58.20;;;;;;1538927;76;1082;-65
2023/10/25 07:43:26;;;;;;;;;;;19.60;58.10;;;;;;1539732;76;690;-63
2023/10/25 07:45:28;;;;;;;;;;;19.80;58.20;;;;;;1537916;76;1945;-63
2023/10/25 07:47:30;;;;;;;;;;;19.80;58.20;;;;;;1542755;76;760;-63
2023/10/25 07:49:35;;;;;;;;;;;19.80;58.20;;;;;;1539911;76;745;-62
2023/10/25 07:51:37;;;;;;;;;;;19.90;58.20;;;;;;1539851;76;1153;-63
2023/10/25 07:53:39;;;;;;;;;;;19.90;58.20;;;;;;1536865;76;770;-62
2023/10/25 07:55:41;;;;;;;;;;;19.80;58.20;;;;;;1535377;76;757;-63
2023/10/25 07:57:43;;;;;;;;;;;19.80;58.20;;;;;;1535568;76;678;-62
2023/10/25 07:59:45;;;;;;;;;;;19.80;58.10;;;;;;1540221;76;1507;-63
2023/10/25 08:01:48;;;;;;;;;;;19.80;58.10;;;;;;1539389;76;1148;-63
2023/10/25 08:03:50;;;;;;;;;;;19.80;58.20;;;;;;1536619;76;685;-65
2023/10/25 08:05:52;;;;;;;;;;;19.80;58.10;;;;;;1539789;76;1925;-62
2023/10/25 08:07:54;;;;;;;;;;;19.80;58.10;;;;;;1539178;76;680;-63
2023/10/25 08:09:56;;;;;;;;;;;19.80;58.10;;;;;;1541795;76;735;-65
2023/10/25 08:11:58;;;;;;;;;;;19.90;58.20;;;;;;1541334;76;1159;-64
2023/10/25 08:14:00;;;;;;;;;;;19.80;58.10;;;;;;1538178;76;735;-62
2023/10/25 08:16:02;;;;;;;;;;;19.80;58.10;;;;;;1539051;76;731;-63
2023/10/25 08:18:04;;;;;;;;;;;19.90;58.20;;;;;;1541094;76;686;-62
2023/10/25 08:20:06;;;;;;;;;;;19.90;58.20;;;;;;1539985;76;694;-64
2023/10/25 08:22:08;;;;;;;;;;;19.80;58.10;;;;;;1536177;76;1160;-64
2023/10/25 08:24:10;;;;;;;;;;;19.80;58.10;;;;;;1540313;76;730;-64
2023/10/25 08:26:13;;;;;;;;;;;19.90;58.20;;;;;;1540506;76;1913;-65
2023/10/25 08:28:14;;;;;;;;;;;19.90;58.20;;;;;;1540480;76;939;-63
2023/10/25 08:30:17;;;;;;;;;;;19.80;58.10;;;;;;1539719;76;796;-65
2023/10/25 08:32:19;;;;;;;;;;;19.90;58.20;;;;;;1535953;76;1363;-63
2023/10/25 08:34:21;;;;;;;;;;;19.80;58.10;;;;;;1541504;76;708;-64
2023/10/25 08:36:23;;;;;;;;;;;19.90;58.20;;;;;;1541253;76;851;-66
2023/10/25 08:38:25;;;;;;;;;;;19.90;58.10;;;;;;1540391;76;686;-64
2023/10/25 08:40:27;;;;;;;;;;;19.80;58.10;;;;;;1538181;76;694;-65
2023/10/25 08:42:29;;;;;;;;;;;19.80;58.10;;;;;;1541311;76;1129;-66
2023/10/25 08:44:34;;;;;;;;;;;19.90;58.20;;;;;;1538331;76;735;-61
2023/10/25 08:46:34;;;;;;;;;;;19.90;58.20;;;;;;1539903;76;1935;-61
2023/10/25 08:48:36;;;;;;;;;;;19.90;58.10;;;;;;1539556;76;837;-60
2023/10/25 08:50:38;;;;;;;;;;;19.90;58.10;;;;;;1540553;76;689;-60
2023/10/25 08:52:40;;;;;;;;;;;19.80;58.10;;;;;;1537451;76;1120;-60
2023/10/25 08:54:42;;;;;;;;;;;19.90;58.10;;;;;;1504876;77;1569;-60
2023/10/25 08:56:45;;;;;;;;;;;19.90;58.10;;;;;;1540248;76;683;-61
2023/10/25 08:58:46;;;;;;;;;;;19.80;58.10;;;;;;1537191;76;701;-60
2023/10/25 09:00:48;;;;;;;;;;;19.90;58.10;;;;;;1540819;76;744;-61
2023/10/25 09:02:50;;;;;;;;;;;19.80;58.10;;;;;;1536716;76;751;-61
2023/10/25 09:05:06;;;;;;;;;;;19.80;58.10;;;;;;1534170;76;692;-61
2023/10/25 09:07:21;;;;;;;;;;;19.80;58.00;;;;;;1535935;75;1951;-61
2023/10/25 09:09:23;;;;;;;;;;;19.80;58.10;;;;;;1492657;78;1162;-60
2023/10/25 09:11:25;;;;;;;;;;;19.90;58.10;;;;;;1513130;76;1104;-60
2023/10/25 09:13:27;;;;;;;;;;;19.80;58.00;;;;;;1536216;76;689;-60
2023/10/25 09:15:29;;;;;;;;;;;19.80;58.00;;;;;;1537920;76;812;-61
2023/10/25 09:17:31;;;;;;;;;;;19.90;58.10;;;;;;1546271;76;783;-61
2023/10/25 09:19:33;;;;;;;;;;;19.80;58.00;;;;;;1537085;76;746;-61
2023/10/25 09:21:35;;;;;;;;;;;19.80;58.00;;;;;;1551521;75;1143;-61
2023/10/25 09:23:37;;;;;;;;;;;19.80;58.00;;;;;;1545890;75;923;-61
2023/10/25 09:25:39;;;;;;;;;;;19.80;58.00;;;;;;1549714;75;599;-61
2023/10/25 09:27:45;;;;;;;;;;;19.90;58.10;;;;;;1538295;76;1066;-60
2023/10/25 09:29:44;;;;;;;;;;;19.90;58.10;;;;;;1537938;76;1319;-61
2023/10/25 09:31:46;;;;;;;;;;;19.90;58.10;;;;;;1539850;75;1212;-61
2023/10/25 09:33:50;;;;;;;;;;;19.90;58.00;;;;;;1522953;76;760;-61
2023/10/25 09:35:52;;;;;;;;;;;19.90;58.10;;;;;;1543210;76;791;-60
2023/10/25 09:37:53;;;;;;;;;;;19.80;58.00;;;;;;1543001;75;735;-61
2023/10/25 09:39:55;;;;;;;;;;;19.90;58.10;;;;;;1543722;76;708;-59
2023/10/25 09:41:57;;;;;;;;;;;19.90;58.10;;;;;;1541910;75;1156;-61
2023/10/25 09:44:00;;;;;;;;;;;19.90;58.10;;;;;;1539749;76;829;-59
2023/10/25 09:46:04;;;;;;;;;;;19.90;58.10;;;;;;1540850;76;1933;-60
2023/10/25 09:48:05;;;;;;;;;;;19.90;58.10;;;;;;1539757;75;1651;-61
2023/10/25 09:50:09;;;;;;;;;;;19.90;58.10;;;;;;1539767;75;795;-60
2023/10/25 09:52:15;;;;;;;;;;;19.90;58.10;;;;;;1532910;75;1837;-60
2023/10/25 09:54:19;;;;;;;;;;;19.90;58.00;;;;;;1540010;76;1797;-61
2023/10/25 09:56:21;;;;;;;;;;;19.90;58.10;;;;;;1539589;76;753;-61
2023/10/25 09:58:23;;;;;;;;;;;19.90;58.10;;;;;;1540676;76;760;-60
2023/10/25 10:00:25;;;;;;;;;;;19.90;58.00;;;;;;1541257;76;746;-60
2023/10/25 10:02:37;;;;;;;;;;;19.90;58.00;;;;;;1543585;76;1098;-61
2023/10/25 10:04:41;;;;;;;;;;;19.90;58.00;;;;;;1544641;75;688;-59
2023/10/25 10:07:00;;;;;;;;;;;19.90;58.00;;;;;;1533767;75;1935;-61
2023/10/25 10:09:20;;;;;;;;;;;19.90;58.10;;;;;;1538908;76;1906;-61
2023/10/25 10:11:22;;;;;;;;;;;19.90;58.00;;;;;;1540284;75;1158;-61
2023/10/25 10:13:26;;;;;;;;;;;19.90;58.00;;;;;;1543128;76;735;-61
2023/10/25 10:15:45;;;;;;;;;;;20.00;58.00;;;;;;1541584;76;780;-61
2023/10/25 10:17:46;;;;;;;;;;;19.90;58.00;;;;;;1500851;77;1420;-61
2023/10/25 10:19:54;;;;;;;;;;;19.90;58.00;;;;;;1515497;76;900;-61
2023/10/25 10:22:07;;;;;;;;;;;19.90;58.10;;;;;;1538794;75;1690;-60
2023/10/25 10:24:06;;;;;;;;;;;19.90;58.00;;;;;;1536483;76;1461;-60
2023/10/25 10:26:08;;;;;;;;;;;19.90;58.00;;;;;;1521726;76;1936;-60
2023/10/25 10:28:10;;;;;;;;;;;19.90;58.00;;;;;;1539855;76;750;-61
2023/10/25 10:30:23;;;;;;;;;;;19.90;58.00;;;;;;1539980;75;732;-61
2023/10/25 10:32:25;;;;;;;;;;;19.90;58.00;;;;;;1505788;77;1108;-60
2023/10/25 10:34:39;;;;;;;;;;;20.00;58.00;;;;;;1529501;76;1065;-61
2023/10/25 10:36:41;;;;;;;;;;;19.90;58.00;;;;;;1538597;76;701;-61
2023/10/25 10:39:02;;;;;;;;;;;19.90;58.00;;;;;;1542112;76;763;-60
2023/10/25 10:41:04;;;;;;;;;;;19.90;58.00;;;;;;1539699;76;1142;-59
2023/10/25 10:43:10;;;;;;;;;;;19.90;58.00;;;;;;1537351;76;670;-62
2023/10/25 10:45:14;;;;;;;;;;;19.90;58.00;;;;;;1538147;75;1365;-61
2023/10/25 10:47:16;;;;;;;;;;;19.90;58.00;;;;;;1539514;75;1917;-61
2023/10/25 10:49:19;;;;;;;;;;;20.00;58.00;;;;;;1538453;75;667;-62
2023/10/25 10:51:21;;;;;;;;;;;19.90;58.00;;;;;;1540546;76;1158;-61
2023/10/25 10:53:23;;;;;;;;;;;19.90;58.10;;;;;;1534267;76;698;-61
2023/10/25 10:55:25;;;;;;;;;;;19.90;58.00;;;;;;1540716;75;652;-60
2023/10/25 10:57:27;;;;;;;;;;;19.90;58.10;;;;;;1544290;76;748;-60
2023/10/25 10:59:29;;;;;;;;;;;20.00;58.00;;;;;;1544849;75;697;-61
2023/10/25 11:01:31;;;;;;;;;;;19.90;58.00;;;;;;1538572;76;1871;-61
2023/10/25 11:03:33;;;;;;;;;;;19.90;58.00;;;;;;1534964;75;743;-61
2023/10/25 11:05:36;;;;;;;;;;;19.90;58.10;;;;;;1540249;75;783;-62
2023/10/25 11:07:38;;;;;;;;;;;19.90;58.00;;;;;;1538313;76;1904;-61
2023/10/25 11:09:40;;;;;;;;;;;19.90;58.00;;;;;;1537913;75;692;-61
2023/10/25 11:11:41;;;;;;;;;;;19.90;58.00;;;;;;1539820;75;1125;-60
2023/10/25 11:13:43;;;;;;;;;;;19.90;58.00;;;;;;1544247;75;746;-61
2023/10/25 11:15:45;;;;;;;;;;;19.90;58.00;;;;;;1540271;75;1556;-61
2023/10/25 11:17:47;;;;;;;;;;;19.90;58.00;;;;;;1540282;75;681;-61
2023/10/25 11:19:49;;;;;;;;;;;19.90;58.00;;;;;;1540328;76;729;-59
2023/10/25 11:21:52;;;;;;;;;;;20.00;58.00;;;;;;1540930;75;1121;-61
2023/10/25 11:23:55;;;;;;;;;;;20.00;58.00;;;;;;1539429;76;718;-61
2023/10/25 11:25:57;;;;;;;;;;;19.90;58.00;;;;;;1540575;75;817;-61
2023/10/25 11:27:59;;;;;;;;;;;19.90;58.00;;;;;;1538716;76;1953;-58
2023/10/25 11:30:01;;;;;;;;;;;20.00;58.00;;;;;;1538932;75;1555;-60
2023/10/25 11:32:06;;;;;;;;;;;20.00;58.00;;;;;;1539013;75;1113;-61
2023/10/25 11:34:06;;;;;;;;;;;19.90;58.00;;;;;;1542703;75;1671;-62
2023/10/25 11:36:11;;;;;;;;;;;20.00;58.00;;;;;;1536591;75;692;-61
2023/10/25 11:38:12;;;;;;;;;;;20.00;58.00;;;;;;1540063;76;1527;-61
2023/10/25 11:40:14;;;;;;;;;;;19.90;58.10;;;;;;1537531;76;767;-60
2023/10/25 11:42:16;;;;;;;;;;;20.00;58.00;;;;;;1541111;76;1205;-60
2023/10/25 11:44:21;;;;;;;;;;;19.90;58.00;;;;;;1540969;75;1577;-61
2023/10/25 11:46:24;;;;;;;;;;;20.00;58.00;;;;;;1540325;76;670;-61
2023/10/25 11:48:26;;;;;;;;;;;20.00;58.00;;;;;;1539565;76;1904;-60
2023/10/25 11:50:27;;;;;;;;;;;19.90;58.00;;;;;;1540142;76;703;-61
2023/10/25 11:52:30;;;;;;;;;;;20.00;58.00;;;;;;1535208;75;1138;-60
2023/10/25 11:54:32;;;;;;;;;;;20.00;58.00;;;;;;1540522;76;732;-61
2023/10/25 11:56:34;;;;;;;;;;;20.00;58.00;;;;;;1540219;76;702;-62
2023/10/25 11:58:36;;;;;;;;;;;20.00;58.00;;;;;;1538294;75;1604;-61
2023/10/25 12:00:38;;;;;;;;;;;20.00;58.00;;;;;;1540498;75;701;-61
2023/10/25 12:02:41;;;;;;;;;;;20.00;58.00;;;;;;1539143;76;1125;-60
2023/10/25 12:04:44;;;;;;;;;;;20.00;58.00;;;;;;1540781;75;738;-61
2023/10/25 12:06:46;;;;;;;;;;;19.90;58.00;;;;;;1538792;75;1920;-60
2023/10/25 12:08:48;;;;;;;;;;;20.00;58.00;;;;;;1538717;75;640;-62
2023/10/25 12:10:50;;;;;;;;;;;20.00;58.00;;;;;;1540620;76;1102;-60